createdAt,value
2022-09-03T00:02:12.291Z,12.12
2022-09-03T00:04:53.371Z,12.11
2022-09-03T00:07:42.802Z,12.08
2022-09-03T00:10:18.062Z,12.04
2022-09-03T00:12:47.471Z,11.98
2022-09-03T00:15:24.417Z,12.00
2022-09-03T00:18:09.255Z,12.12
2022-09-03T00:20:44.211Z,12.23
2022-09-03T00:23:19.456Z,12.24
2022-09-03T00:26:14.050Z,12.17
2022-09-03T00:28:54.852Z,12.09
2022-09-03T00:31:31.987Z,12.11
2022-09-03T00:34:04.768Z,11.84
2022-09-03T00:36:42.183Z,11.66
2022-09-03T00:39:17.589Z,11.56
2022-09-03T00:42:06.835Z,11.45
2022-09-03T00:45:16.939Z,11.41
2022-09-03T00:47:58.658Z,11.19
2022-09-03T00:50:52.983Z,11.07
2022-09-03T00:53:47.893Z,11.03
2022-09-03T00:56:36.431Z,10.95
2022-09-03T00:59:08.148Z,10.86
2022-09-03T01:01:40.293Z,10.83
2022-09-03T01:04:23.387Z,10.67
2022-09-03T01:07:25.231Z,10.63
2022-09-03T01:10:05.806Z,10.64
2022-09-03T01:12:55.431Z,10.52
2022-09-03T01:15:36.054Z,10.41
2022-09-03T01:18:17.878Z,10.48
2022-09-03T01:21:22.059Z,10.47
2022-09-03T01:24:18.235Z,10.49
2022-09-03T01:27:06.186Z,10.62
2022-09-03T01:29:39.616Z,10.44
2022-09-03T01:32:20.307Z,10.47
2022-09-03T01:35:08.966Z,10.37
2022-09-03T01:37:58.495Z,10.34
2022-09-03T01:40:31.024Z,10.27
2022-09-03T01:43:45.578Z,10.12
2022-09-03T01:46:23.356Z,10.07
2022-09-03T01:49:11.516Z,10.25
2022-09-03T01:51:38.303Z,10.41
2022-09-03T01:54:40.351Z,10.52
2022-09-03T01:57:35.912Z,10.39
2022-09-03T02:00:15.527Z,10.46
2022-09-03T02:02:44.264Z,10.45
2022-09-03T02:05:15.750Z,10.42
2022-09-03T02:07:46.624Z,10.20
2022-09-03T02:10:19.936Z,10.18
2022-09-03T02:12:53.540Z,10.06
2022-09-03T02:15:22.703Z,10.10
2022-09-03T02:17:54.861Z,10.22
2022-09-03T02:20:24.097Z,10.16
2022-09-03T02:22:51.193Z,10.17
2022-09-03T02:25:18.224Z,10.17
2022-09-03T02:27:46.048Z,10.10
2022-09-03T02:30:12.599Z,10.08
2022-09-03T02:32:39.372Z,10.20
2022-09-03T02:35:06.900Z,10.19
2022-09-03T02:37:33.352Z,10.15
2022-09-03T02:40:00.004Z,10.16
2022-09-03T02:42:27.263Z,10.34
2022-09-03T02:45:00.754Z,10.44
2022-09-03T02:47:32.370Z,10.50
2022-09-03T02:49:58.873Z,10.53
2022-09-03T02:52:25.380Z,10.76
2022-09-03T02:54:52.039Z,10.77
2022-09-03T02:57:20.102Z,10.77
2022-09-03T02:59:54.097Z,10.79
2022-09-03T03:02:20.631Z,10.73
2022-09-03T03:04:47.218Z,10.58
2022-09-03T03:07:13.775Z,10.58
2022-09-03T03:09:40.291Z,10.47
2022-09-03T03:12:07.292Z,10.51
2022-09-03T03:14:33.809Z,10.60
2022-09-03T03:17:00.448Z,10.43
2022-09-03T03:19:27.176Z,10.47
2022-09-03T03:21:54.003Z,10.57
2022-09-03T03:24:20.503Z,10.47
2022-09-03T03:26:46.977Z,10.28
2022-09-03T03:29:17.863Z,10.16
2022-09-03T03:31:44.321Z,10.31
2022-09-03T03:34:10.950Z,10.12
2022-09-03T03:36:37.680Z,10.19
2022-09-03T03:39:04.414Z,10.23
2022-09-03T03:41:33.358Z,10.24
2022-09-03T03:44:02.604Z,10.20
2022-09-03T03:46:32.078Z,10.00
2022-09-03T03:48:59.794Z,9.90
2022-09-03T03:51:26.610Z,9.80
2022-09-03T03:53:58.617Z,9.92
2022-09-03T03:56:27.234Z,9.77
2022-09-03T03:58:54.797Z,9.74
2022-09-03T04:01:24.064Z,9.95
2022-09-03T04:03:51.265Z,9.70
2022-09-03T04:06:19.848Z,9.73
2022-09-03T04:08:49.647Z,9.46
2022-09-03T04:11:19.833Z,9.33
2022-09-03T04:13:47.387Z,9.19
2022-09-03T04:16:25.395Z,9.10
2022-09-03T04:18:54.254Z,9.07
2022-09-03T04:21:23.726Z,8.94
2022-09-03T04:23:51.547Z,8.90
2022-09-03T04:26:20.990Z,8.85
2022-09-03T04:28:47.697Z,8.86
2022-09-03T04:31:16.709Z,8.86
2022-09-03T04:33:43.558Z,8.91
2022-09-03T04:36:19.204Z,8.90
2022-09-03T04:38:47.937Z,9.11
2022-09-03T04:41:16.887Z,9.06
2022-09-03T04:43:43.594Z,9.19
2022-09-03T04:46:17.612Z,8.98
2022-09-03T04:48:48.822Z,9.09
2022-09-03T04:51:17.446Z,9.32
2022-09-03T04:53:46.597Z,9.24
2022-09-03T04:56:14.248Z,9.26
2022-09-03T04:58:44.416Z,9.27
2022-09-03T05:01:12.739Z,9.23
2022-09-03T05:03:39.314Z,9.33
2022-09-03T05:06:06.559Z,9.46
2022-09-03T05:08:37.261Z,9.37
2022-09-03T05:11:05.318Z,9.43
2022-09-03T05:13:33.605Z,9.52
2022-09-03T05:16:06.435Z,9.60
2022-09-03T05:18:35.645Z,9.66
2022-09-03T05:21:12.805Z,9.76
2022-09-03T05:23:42.641Z,9.76
2022-09-03T05:26:12.304Z,9.70
2022-09-03T05:28:40.584Z,9.72
2022-09-03T05:31:08.803Z,9.75
2022-09-03T05:33:44.119Z,9.79
2022-09-03T05:36:16.095Z,9.71
2022-09-03T05:38:43.523Z,9.79
2022-09-03T05:41:12.327Z,9.86
2022-09-03T05:43:40.395Z,9.99
2022-09-03T05:46:09.552Z,10.16
2022-09-03T05:48:37.752Z,10.29
2022-09-03T05:51:07.516Z,10.38
2022-09-03T05:53:36.923Z,10.53
2022-09-03T05:56:06.621Z,10.66
2022-09-03T05:58:43.479Z,10.86
2022-09-03T06:01:11.009Z,11.13
2022-09-03T06:03:37.611Z,11.23
2022-09-03T06:06:05.466Z,11.30
2022-09-03T06:08:32.400Z,11.51
2022-09-03T06:11:00.489Z,11.69
2022-09-03T06:13:27.245Z,11.85
2022-09-03T06:16:02.067Z,11.90
2022-09-03T06:18:29.357Z,12.07
2022-09-03T06:20:57.359Z,12.14
2022-09-03T06:23:24.706Z,12.32
2022-09-03T06:26:09.577Z,12.30
2022-09-03T06:28:41.234Z,12.48
2022-09-03T06:31:09.769Z,12.48
2022-09-03T06:33:37.785Z,12.65
2022-09-03T06:36:08.964Z,12.82
2022-09-03T06:38:37.317Z,13.02
2022-09-03T06:41:12.426Z,13.18
2022-09-03T06:43:41.850Z,13.28
2022-09-03T06:46:09.896Z,13.41
2022-09-03T06:48:38.912Z,13.47
2022-09-03T06:51:08.358Z,13.45
2022-09-03T06:53:37.148Z,13.53
2022-09-03T06:56:15.702Z,13.57
2022-09-03T06:58:45.326Z,13.63
2022-09-03T07:01:14.963Z,13.81
2022-09-03T07:03:43.758Z,14.11
2022-09-03T07:06:14.471Z,14.27
2022-09-03T07:08:42.582Z,14.44
2022-09-03T07:11:14.747Z,14.58
2022-09-03T07:13:44.236Z,14.79
2022-09-03T07:16:17.294Z,14.86
2022-09-03T07:18:44.712Z,14.94
2022-09-03T07:21:13.769Z,14.98
2022-09-03T07:23:42.150Z,14.94
2022-09-03T07:26:12.806Z,15.10
2022-09-03T07:28:40.333Z,15.19
2022-09-03T07:31:12.631Z,15.23
2022-09-03T07:33:39.627Z,15.37
2022-09-03T07:36:11.458Z,15.60
2022-09-03T07:38:38.200Z,15.83
2022-09-03T07:41:08.701Z,16.08
2022-09-03T07:43:41.143Z,16.19
2022-09-03T07:46:08.880Z,16.24
2022-09-03T07:48:37.621Z,16.25
2022-09-03T07:51:04.723Z,16.50
2022-09-03T07:53:32.377Z,16.75
2022-09-03T07:56:11.526Z,17.60
2022-09-03T07:58:41.338Z,18.46
2022-09-03T08:01:13.504Z,19.50
2022-09-03T08:03:45.365Z,20.41
2022-09-03T08:06:12.932Z,20.95
2022-09-03T08:08:40.336Z,21.43
2022-09-03T08:11:12.370Z,22.08
2022-09-03T08:13:40.937Z,23.22
2022-09-03T08:16:09.526Z,23.83
2022-09-03T08:18:40.086Z,23.11
2022-09-03T08:21:07.691Z,22.87
2022-09-03T08:23:38.847Z,23.75
2022-09-03T08:26:06.286Z,24.44
2022-09-03T08:28:39.317Z,24.62
2022-09-03T08:31:12.179Z,23.57
2022-09-03T08:33:44.641Z,22.01
2022-09-03T08:36:25.957Z,22.49
2022-09-03T08:38:55.373Z,23.05
2022-09-03T08:41:31.790Z,22.35
2022-09-03T08:44:19.912Z,22.35
2022-09-03T08:47:01.630Z,21.57
2022-09-03T08:49:34.515Z,20.90
2022-09-03T08:52:06.849Z,20.64
2022-09-03T08:54:33.587Z,20.55
2022-09-03T08:57:02.830Z,20.33
2022-09-03T08:59:33.039Z,19.96
2022-09-03T09:02:12.145Z,20.04
2022-09-03T09:05:20.425Z,20.05
2022-09-03T09:07:53.471Z,20.02
2022-09-03T09:10:44.624Z,19.97
2022-09-03T09:13:16.329Z,19.98
2022-09-03T09:15:55.095Z,19.99
2022-09-03T09:18:46.674Z,20.36
2022-09-03T09:21:27.565Z,20.68
2022-09-03T09:24:12.187Z,21.20
2022-09-03T09:26:41.820Z,22.32
2022-09-03T09:29:10.848Z,23.53
2022-09-03T09:31:44.699Z,24.38
2022-09-03T09:34:11.826Z,25.66
2022-09-03T09:36:50.721Z,25.95
2022-09-03T09:39:17.802Z,26.17
2022-09-03T09:41:58.984Z,26.96
2022-09-03T09:44:26.606Z,27.56
2022-09-03T09:47:04.866Z,27.64
2022-09-03T09:49:35.636Z,28.13
2022-09-03T09:52:06.724Z,28.50
2022-09-03T09:54:33.420Z,28.33
2022-09-03T09:57:06.230Z,27.42
2022-09-03T09:59:34.925Z,27.89
2022-09-03T10:02:18.212Z,27.14
2022-09-03T10:04:49.862Z,27.84
2022-09-03T10:07:25.477Z,28.72
2022-09-03T10:10:21.410Z,29.28
2022-09-03T10:13:10.033Z,29.56
2022-09-03T10:16:08.734Z,30.04
2022-09-03T10:19:04.674Z,30.40
2022-09-03T10:21:41.831Z,30.00
2022-09-03T10:24:17.261Z,29.40
2022-09-03T10:26:47.213Z,30.29
2022-09-03T10:29:20.201Z,30.20
2022-09-03T10:32:12.569Z,29.62
2022-09-03T10:35:00.209Z,28.75
2022-09-03T10:38:02.103Z,28.71
2022-09-03T10:40:48.555Z,28.59
2022-09-03T10:43:41.860Z,27.81
2022-09-03T10:46:18.378Z,26.60
2022-09-03T10:48:56.309Z,25.71
2022-09-03T10:51:57.177Z,25.99
2022-09-03T10:54:44.560Z,25.28
2022-09-03T10:57:23.714Z,24.41
2022-09-03T10:59:59.319Z,24.06
2022-09-03T11:02:38.115Z,23.56
2022-09-03T11:05:15.829Z,24.55
2022-09-03T11:07:52.000Z,24.82
2022-09-03T11:10:31.041Z,25.32
2022-09-03T11:12:57.744Z,24.89
2022-09-03T11:15:28.521Z,24.50
2022-09-03T11:18:03.584Z,23.82
2022-09-03T11:20:32.148Z,23.95
2022-09-03T11:23:03.060Z,23.64
2022-09-03T11:25:37.037Z,23.28
2022-09-03T11:28:42.250Z,23.46
2022-09-03T11:31:33.942Z,23.29
2022-09-03T11:34:17.851Z,24.06
2022-09-03T11:36:50.639Z,25.46
2022-09-03T11:39:36.665Z,25.46
2022-09-03T11:42:09.632Z,26.40
2022-09-03T11:44:37.953Z,28.66
2022-09-03T11:47:24.156Z,29.51
2022-09-03T11:49:53.632Z,29.86
2022-09-03T11:52:28.352Z,30.43
2022-09-03T11:54:55.581Z,30.51
2022-09-03T11:57:33.529Z,30.98
2022-09-03T12:00:14.624Z,30.23
2022-09-03T12:02:48.757Z,29.54
2022-09-03T12:05:33.194Z,28.12
2022-09-03T12:08:14.925Z,27.57
2022-09-03T12:10:53.342Z,26.08
2022-09-03T12:13:43.395Z,27.22
2022-09-03T12:16:45.987Z,29.04
2022-09-03T12:19:51.889Z,29.50
2022-09-03T12:22:20.184Z,29.80
2022-09-03T12:24:48.206Z,31.10
2022-09-03T12:27:26.895Z,31.44
2022-09-03T12:30:00.210Z,31.41
2022-09-03T12:32:32.508Z,31.46
2022-09-03T12:35:09.966Z,30.67
2022-09-03T12:40:27.698Z,31.52
2022-09-03T12:46:13.970Z,31.30
2022-09-03T12:51:51.950Z,31.11
2022-09-03T12:54:20.382Z,31.79
2022-09-03T12:56:53.875Z,30.94
2022-09-03T12:59:23.070Z,31.63
2022-09-03T13:01:56.917Z,31.41
2022-09-03T13:04:32.504Z,29.60
2022-09-03T13:07:11.823Z,27.60
2022-09-03T13:09:41.622Z,26.57
2022-09-03T13:12:21.366Z,24.96
2022-09-03T13:14:48.632Z,25.06
2022-09-03T13:17:52.197Z,25.65
2022-09-03T13:20:40.168Z,25.03
2022-09-03T13:23:25.822Z,24.34
2022-09-03T13:26:05.948Z,23.88
2022-09-03T13:28:53.005Z,23.79
2022-09-03T13:31:53.229Z,26.46
2022-09-03T13:34:31.955Z,28.14
2022-09-03T13:37:13.491Z,28.84
2022-09-03T13:39:47.677Z,29.13
2022-09-03T13:42:24.243Z,30.22
2022-09-03T13:45:06.260Z,30.03
2022-09-03T13:48:30.610Z,29.71
2022-09-03T13:51:23.895Z,29.98
2022-09-03T13:54:05.033Z,30.83
2022-09-03T13:56:45.271Z,29.73
2022-09-03T13:59:29.169Z,30.16
2022-09-03T14:02:04.800Z,29.83
2022-09-03T14:04:49.181Z,28.48
2022-09-03T14:07:46.255Z,28.83
2022-09-03T14:10:39.915Z,27.50
2022-09-03T14:13:16.371Z,26.70
2022-09-03T14:16:15.708Z,25.28
2022-09-03T14:18:56.680Z,25.16
2022-09-03T14:21:29.502Z,24.90
2022-09-03T14:24:30.481Z,24.46
2022-09-03T14:27:02.387Z,24.27
2022-09-03T14:29:31.638Z,23.89
2022-09-03T14:32:16.447Z,23.47
2022-09-03T14:35:04.616Z,23.74
2022-09-03T14:37:46.339Z,23.59
2022-09-03T14:40:22.717Z,23.30
2022-09-03T14:43:13.748Z,23.06
2022-09-03T14:45:40.271Z,22.91
2022-09-03T14:48:25.077Z,23.04
2022-09-03T14:50:58.242Z,23.16
2022-09-03T14:53:56.858Z,23.15
2022-09-03T14:56:31.647Z,23.12
2022-09-03T14:59:28.945Z,23.10
2022-09-03T15:02:20.046Z,23.00
2022-09-03T15:05:12.075Z,23.02
2022-09-03T15:08:08.162Z,23.12
2022-09-03T15:11:01.273Z,23.03
2022-09-03T15:13:34.261Z,22.87
2022-09-03T15:16:34.628Z,22.66
2022-09-03T15:19:13.544Z,22.59
2022-09-03T15:21:42.752Z,22.71
2022-09-03T15:24:49.384Z,22.51
2022-09-03T15:27:31.928Z,22.61
2022-09-03T15:30:21.578Z,22.35
2022-09-03T15:32:48.172Z,22.28
2022-09-03T15:35:38.880Z,22.00
2022-09-03T15:38:30.405Z,22.00
2022-09-03T15:41:01.976Z,21.84
2022-09-03T15:43:33.742Z,21.76
2022-09-03T15:46:10.745Z,21.72
2022-09-03T15:49:05.240Z,21.74
2022-09-03T15:51:43.267Z,21.58
2022-09-03T15:54:25.215Z,21.50
2022-09-03T15:57:18.241Z,21.54
2022-09-03T16:00:22.195Z,21.45
2022-09-03T16:03:07.609Z,21.36
2022-09-03T16:05:57.181Z,21.16
2022-09-03T16:08:51.448Z,21.13
2022-09-03T16:11:27.379Z,21.21
2022-09-03T16:14:34.770Z,21.01
2022-09-03T16:17:04.280Z,21.06
2022-09-03T16:19:41.878Z,21.00
2022-09-03T16:22:26.155Z,20.95
2022-09-03T16:25:07.291Z,20.96
2022-09-03T16:27:40.334Z,20.88
2022-09-03T16:30:22.740Z,20.92
2022-09-03T16:33:13.922Z,20.79
2022-09-03T16:35:52.707Z,20.85
2022-09-03T16:38:44.759Z,20.67
2022-09-03T16:41:23.693Z,20.55
2022-09-03T16:44:16.909Z,20.60
2022-09-03T16:47:04.833Z,20.50
2022-09-03T16:50:10.712Z,20.47
2022-09-03T16:52:43.188Z,20.56
2022-09-03T16:55:25.310Z,20.46
2022-09-03T16:58:11.585Z,20.32
2022-09-03T17:01:16.327Z,20.30
2022-09-03T17:03:46.665Z,19.94
2022-09-03T17:06:21.214Z,19.74
2022-09-03T17:09:16.695Z,19.57
2022-09-03T17:11:56.673Z,19.57
2022-09-03T17:15:01.819Z,19.36
2022-09-03T17:17:57.475Z,18.91
2022-09-03T17:20:50.283Z,18.61
2022-09-03T17:23:26.394Z,18.37
2022-09-03T17:26:29.655Z,18.22
2022-09-03T17:29:26.560Z,17.86
2022-09-03T17:32:48.681Z,17.96
2022-09-03T17:35:25.429Z,17.72
2022-09-03T17:38:25.712Z,17.55
2022-09-03T17:40:55.888Z,17.61
2022-09-03T17:43:38.986Z,17.60
2022-09-03T17:46:20.443Z,17.51
2022-09-03T17:48:53.527Z,17.31
2022-09-03T17:51:39.346Z,17.37
2022-09-03T17:54:28.565Z,17.30
2022-09-03T17:57:13.253Z,17.30
2022-09-03T18:00:02.733Z,17.20
2022-09-03T18:02:37.253Z,17.20
2022-09-03T18:05:27.569Z,17.12
2022-09-03T18:08:12.806Z,17.00
2022-09-03T18:11:01.118Z,16.87
2022-09-03T18:14:09.238Z,16.79
2022-09-03T18:16:46.017Z,16.78
2022-09-03T18:20:08.916Z,16.70
2022-09-03T18:23:11.151Z,16.60
2022-09-03T18:25:59.663Z,16.74
2022-09-03T18:29:10.002Z,16.46
2022-09-03T18:31:55.530Z,16.48
2022-09-03T18:34:49.132Z,16.39
2022-09-03T18:37:39.061Z,16.42
2022-09-03T18:40:27.002Z,16.45
2022-09-03T18:43:42.748Z,16.33
2022-09-03T18:48:01.239Z,16.63
2022-09-03T18:50:12.717Z,16.42
2022-09-03T18:53:18.342Z,16.39
2022-09-03T18:56:13.125Z,16.34
2022-09-03T18:59:08.816Z,16.22
2022-09-03T19:01:59.853Z,16.47
2022-09-03T19:05:31.352Z,16.55
2022-09-03T19:08:43.667Z,16.33
2022-09-03T19:11:52.240Z,16.28
2022-09-03T19:14:58.455Z,16.18
2022-09-03T19:17:54.011Z,16.18
2022-09-03T19:20:50.722Z,16.14
2022-09-03T19:23:35.891Z,16.20
2022-09-03T19:26:58.948Z,16.23
2022-09-03T19:29:55.427Z,16.18
2022-09-03T19:32:54.865Z,16.14
2022-09-03T19:35:49.256Z,16.19
2022-09-03T19:39:04.348Z,16.03
2022-09-03T19:42:03.944Z,16.00
2022-09-03T19:45:17.557Z,16.00
2022-09-03T19:48:33.442Z,16.01
2022-09-03T19:51:54.344Z,16.08
2022-09-03T19:54:42.776Z,16.11
2022-09-03T19:57:32.052Z,16.15
2022-09-03T20:00:17.892Z,16.21
2022-09-03T20:03:20.533Z,16.27
2022-09-03T20:06:10.234Z,16.39
2022-09-03T20:08:58.338Z,16.24
2022-09-03T20:11:28.207Z,16.22
2022-09-03T20:14:15.744Z,16.34
2022-09-03T20:16:48.479Z,16.37
2022-09-03T20:19:43.110Z,16.32
2022-09-03T20:22:12.594Z,16.22
2022-09-03T20:24:55.917Z,16.23
2022-09-03T20:28:06.875Z,16.21
2022-09-03T20:30:47.952Z,16.30
2022-09-03T20:33:42.023Z,16.14
2022-09-03T20:36:14.845Z,16.19
2022-09-03T20:39:11.134Z,16.30
2022-09-03T20:41:58.189Z,16.21
2022-09-03T20:44:36.849Z,16.32
2022-09-03T20:47:23.552Z,16.38
2022-09-03T20:50:40.133Z,16.14
2022-09-03T20:53:33.146Z,16.13
2022-09-03T20:56:10.662Z,16.16
2022-09-03T20:59:04.143Z,16.00
2022-09-03T21:01:53.972Z,16.21
2022-09-03T21:04:38.689Z,16.19
2022-09-03T21:07:43.205Z,16.24
2022-09-03T21:10:26.905Z,16.32
2022-09-03T21:13:02.057Z,16.29
2022-09-03T21:15:38.341Z,16.27
2022-09-03T21:18:38.606Z,16.10
2022-09-03T21:21:23.786Z,16.11
2022-09-03T21:24:05.018Z,15.96
2022-09-03T21:26:39.827Z,15.97
2022-09-03T21:29:30.676Z,15.85
2022-09-03T21:32:05.902Z,15.82
2022-09-03T21:34:43.707Z,15.81
2022-09-03T21:37:13.938Z,15.74
2022-09-03T21:39:55.875Z,15.66
2022-09-03T21:42:42.316Z,15.52
2022-09-03T21:45:15.157Z,15.54
2022-09-03T21:47:48.045Z,15.43
2022-09-03T21:50:18.536Z,15.41
2022-09-03T21:52:45.054Z,15.37
2022-09-03T21:55:20.770Z,15.35
2022-09-03T21:58:19.794Z,15.39
2022-09-03T22:00:46.720Z,15.25
2022-09-03T22:03:13.877Z,15.29
2022-09-03T22:05:57.217Z,15.12
2022-09-03T22:08:34.957Z,14.89
2022-09-03T22:11:25.867Z,14.86
2022-09-03T22:14:02.840Z,14.72
2022-09-03T22:16:41.501Z,14.87
2022-09-03T22:19:09.033Z,14.76
2022-09-03T22:21:44.404Z,14.70
2022-09-03T22:24:42.599Z,14.53
2022-09-03T22:27:32.886Z,14.38
2022-09-03T22:30:07.127Z,14.44
2022-09-03T22:32:45.613Z,14.43
2022-09-03T22:35:17.762Z,14.30
2022-09-03T22:37:59.723Z,14.21
2022-09-03T22:40:33.673Z,14.12
2022-09-03T22:43:10.028Z,14.00
2022-09-03T22:45:54.384Z,13.95
2022-09-03T22:48:54.819Z,14.05
2022-09-03T22:51:21.992Z,13.94
2022-09-03T22:54:13.338Z,13.79
2022-09-03T22:56:41.359Z,13.87
2022-09-03T22:59:15.268Z,13.88
2022-09-03T23:01:44.711Z,13.89
2022-09-03T23:04:21.356Z,13.86
2022-09-03T23:06:59.669Z,13.77
2022-09-03T23:09:34.748Z,13.80
2022-09-03T23:12:07.116Z,13.78
2022-09-03T23:14:41.376Z,13.68
2022-09-03T23:17:15.083Z,13.63
2022-09-03T23:19:48.869Z,13.67
2022-09-03T23:22:59.422Z,13.64
2022-09-03T23:25:33.867Z,13.62
2022-09-03T23:28:06.630Z,13.61
2022-09-03T23:30:33.094Z,13.56
2022-09-03T23:33:00.202Z,13.51
2022-09-03T23:35:35.057Z,13.57
2022-09-03T23:38:24.201Z,13.58
2022-09-03T23:40:54.859Z,13.77
2022-09-03T23:43:37.388Z,13.79
2022-09-03T23:46:36.292Z,13.82
2022-09-03T23:49:25.434Z,13.84
2022-09-03T23:51:57.694Z,13.88
2022-09-03T23:54:45.182Z,13.83
2022-09-03T23:57:24.821Z,13.88
